sensor_id;sensor_type;location;lat;lon;timestamp;P1;durP1;ratioP1;P2;durP2;ratioP2
23228;SDS011;11783;50.350;6.576;2022-10-16T00:01:53;3.72;;;2.10;;
23228;SDS011;11783;50.350;6.576;2022-10-16T00:04:18;4.95;;;2.50;;
23228;SDS011;11783;50.350;6.576;2022-10-16T00:06:44;4.28;;;2.28;;
23228;SDS011;11783;50.350;6.576;2022-10-16T00:09:09;6.95;;;2.30;;
23228;SDS011;11783;50.350;6.576;2022-10-16T00:11:35;8.10;;;1.95;;
23228;SDS011;11783;50.350;6.576;2022-10-16T00:14:03;6.63;;;1.88;;
23228;SDS011;11783;50.350;6.576;2022-10-16T00:16:30;6.10;;;1.75;;
23228;SDS011;11783;50.350;6.576;2022-10-16T00:18:56;9.02;;;1.80;;
23228;SDS011;11783;50.350;6.576;2022-10-16T00:21:26;13.15;;;1.80;;
23228;SDS011;11783;50.350;6.576;2022-10-16T00:23:54;4.57;;;1.83;;
23228;SDS011;11783;50.350;6.576;2022-10-16T00:26:24;4.35;;;1.60;;
23228;SDS011;11783;50.350;6.576;2022-10-16T00:28:53;6.43;;;1.90;;
23228;SDS011;11783;50.350;6.576;2022-10-16T00:31:19;5.57;;;1.80;;
23228;SDS011;11783;50.350;6.576;2022-10-16T00:33:45;8.70;;;1.75;;
23228;SDS011;11783;50.350;6.576;2022-10-16T00:36:12;3.55;;;1.85;;
23228;SDS011;11783;50.350;6.576;2022-10-16T00:38:39;4.80;;;2.05;;
23228;SDS011;11783;50.350;6.576;2022-10-16T00:41:05;4.72;;;1.88;;
23228;SDS011;11783;50.350;6.576;2022-10-16T00:43:43;5.75;;;1.58;;
23228;SDS011;11783;50.350;6.576;2022-10-16T00:46:11;7.25;;;1.50;;
23228;SDS011;11783;50.350;6.576;2022-10-16T00:48:40;3.42;;;0.95;;
23228;SDS011;11783;50.350;6.576;2022-10-16T00:51:10;3.72;;;1.40;;
23228;SDS011;11783;50.350;6.576;2022-10-16T00:53:35;9.05;;;1.33;;
23228;SDS011;11783;50.350;6.576;2022-10-16T00:56:01;9.75;;;1.58;;
23228;SDS011;11783;50.350;6.576;2022-10-16T00:58:27;9.73;;;1.45;;
23228;SDS011;11783;50.350;6.576;2022-10-16T01:00:52;9.68;;;1.52;;
23228;SDS011;11783;50.350;6.576;2022-10-16T01:03:26;9.30;;;1.80;;
23228;SDS011;11783;50.350;6.576;2022-10-16T01:06:16;7.50;;;1.30;;
23228;SDS011;11783;50.350;6.576;2022-10-16T01:11:22;10.05;;;2.10;;
23228;SDS011;11783;50.350;6.576;2022-10-16T01:13:50;10.30;;;2.42;;
23228;SDS011;11783;50.350;6.576;2022-10-16T01:16:39;7.75;;;2.28;;
23228;SDS011;11783;50.350;6.576;2022-10-16T01:19:14;9.95;;;2.63;;
23228;SDS011;11783;50.350;6.576;2022-10-16T01:21:46;10.77;;;1.90;;
23228;SDS011;11783;50.350;6.576;2022-10-16T01:27:09;9.88;;;2.22;;
23228;SDS011;11783;50.350;6.576;2022-10-16T01:38:10;8.07;;;2.53;;
23228;SDS011;11783;50.350;6.576;2022-10-16T01:40:41;9.90;;;2.45;;
23228;SDS011;11783;50.350;6.576;2022-10-16T01:43:12;9.20;;;2.58;;
23228;SDS011;11783;50.350;6.576;2022-10-16T01:45:40;5.88;;;2.50;;
23228;SDS011;11783;50.350;6.576;2022-10-16T01:48:06;7.60;;;2.25;;
23228;SDS011;11783;50.350;6.576;2022-10-16T01:50:35;6.40;;;2.30;;
23228;SDS011;11783;50.350;6.576;2022-10-16T01:53:04;7.18;;;2.10;;
23228;SDS011;11783;50.350;6.576;2022-10-16T01:55:32;9.65;;;2.40;;
23228;SDS011;11783;50.350;6.576;2022-10-16T01:58:01;7.68;;;2.20;;
23228;SDS011;11783;50.350;6.576;2022-10-16T02:00:29;6.03;;;2.30;;
23228;SDS011;11783;50.350;6.576;2022-10-16T02:02:56;4.35;;;1.85;;
23228;SDS011;11783;50.350;6.576;2022-10-16T02:05:26;7.18;;;2.10;;
23228;SDS011;11783;50.350;6.576;2022-10-16T02:07:55;5.75;;;2.10;;
23228;SDS011;11783;50.350;6.576;2022-10-16T02:10:21;7.60;;;2.50;;
23228;SDS011;11783;50.350;6.576;2022-10-16T02:12:54;3.53;;;2.22;;
23228;SDS011;11783;50.350;6.576;2022-10-16T02:15:23;7.47;;;2.13;;
23228;SDS011;11783;50.350;6.576;2022-10-16T02:17:48;6.55;;;2.22;;
23228;SDS011;11783;50.350;6.576;2022-10-16T02:20:14;10.98;;;2.55;;
23228;SDS011;11783;50.350;6.576;2022-10-16T02:22:40;8.55;;;2.42;;
23228;SDS011;11783;50.350;6.576;2022-10-16T02:25:25;4.57;;;2.35;;
23228;SDS011;11783;50.350;6.576;2022-10-16T02:28:02;5.25;;;2.30;;
23228;SDS011;11783;50.350;6.576;2022-10-16T02:30:36;7.88;;;2.60;;
23228;SDS011;11783;50.350;6.576;2022-10-16T02:33:07;6.72;;;2.50;;
23228;SDS011;11783;50.350;6.576;2022-10-16T02:35:35;6.13;;;2.55;;
23228;SDS011;11783;50.350;6.576;2022-10-16T02:38:01;5.63;;;2.30;;
23228;SDS011;11783;50.350;6.576;2022-10-16T02:40:28;4.28;;;2.35;;
23228;SDS011;11783;50.350;6.576;2022-10-16T02:42:54;5.55;;;2.40;;
23228;SDS011;11783;50.350;6.576;2022-10-16T02:45:20;10.95;;;2.65;;
23228;SDS011;11783;50.350;6.576;2022-10-16T02:47:46;8.07;;;2.63;;
23228;SDS011;11783;50.350;6.576;2022-10-16T02:50:12;7.03;;;2.45;;
23228;SDS011;11783;50.350;6.576;2022-10-16T02:52:37;6.65;;;2.55;;
23228;SDS011;11783;50.350;6.576;2022-10-16T02:55:02;6.70;;;2.40;;
23228;SDS011;11783;50.350;6.576;2022-10-16T02:57:28;7.13;;;3.10;;
23228;SDS011;11783;50.350;6.576;2022-10-16T02:59:53;7.03;;;3.03;;
23228;SDS011;11783;50.350;6.576;2022-10-16T03:02:19;9.07;;;3.15;;
23228;SDS011;11783;50.350;6.576;2022-10-16T03:04:44;6.05;;;2.65;;
23228;SDS011;11783;50.350;6.576;2022-10-16T03:07:09;4.32;;;2.95;;
23228;SDS011;11783;50.350;6.576;2022-10-16T03:09:35;5.25;;;3.35;;
23228;SDS011;11783;50.350;6.576;2022-10-16T03:12:00;9.43;;;3.85;;
23228;SDS011;11783;50.350;6.576;2022-10-16T03:14:25;5.32;;;3.15;;
23228;SDS011;11783;50.350;6.576;2022-10-16T03:16:51;5.43;;;3.33;;
23228;SDS011;11783;50.350;6.576;2022-10-16T03:19:17;7.53;;;3.40;;
23228;SDS011;11783;50.350;6.576;2022-10-16T03:21:42;4.53;;;3.13;;
23228;SDS011;11783;50.350;6.576;2022-10-16T03:24:08;5.13;;;3.58;;
23228;SDS011;11783;50.350;6.576;2022-10-16T03:26:33;6.47;;;3.67;;
23228;SDS011;11783;50.350;6.576;2022-10-16T03:28:58;4.88;;;3.17;;
23228;SDS011;11783;50.350;6.576;2022-10-16T03:31:23;6.10;;;3.70;;
23228;SDS011;11783;50.350;6.576;2022-10-16T03:33:49;6.78;;;3.47;;
23228;SDS011;11783;50.350;6.576;2022-10-16T03:36:14;6.28;;;3.47;;
23228;SDS011;11783;50.350;6.576;2022-10-16T03:38:39;5.57;;;3.40;;
23228;SDS011;11783;50.350;6.576;2022-10-16T03:41:05;5.05;;;2.88;;
23228;SDS011;11783;50.350;6.576;2022-10-16T03:43:32;9.93;;;3.30;;
23228;SDS011;11783;50.350;6.576;2022-10-16T03:45:57;5.22;;;3.17;;
23228;SDS011;11783;50.350;6.576;2022-10-16T03:48:23;4.47;;;3.10;;
23228;SDS011;11783;50.350;6.576;2022-10-16T03:50:48;5.13;;;2.78;;
23228;SDS011;11783;50.350;6.576;2022-10-16T03:53:14;6.63;;;3.00;;
23228;SDS011;11783;50.350;6.576;2022-10-16T03:55:43;5.57;;;3.13;;
23228;SDS011;11783;50.350;6.576;2022-10-16T03:58:09;4.65;;;2.90;;
23228;SDS011;11783;50.350;6.576;2022-10-16T04:00:35;6.55;;;2.78;;
23228;SDS011;11783;50.350;6.576;2022-10-16T04:03:00;4.15;;;2.78;;
23228;SDS011;11783;50.350;6.576;2022-10-16T04:05:26;6.60;;;2.88;;
23228;SDS011;11783;50.350;6.576;2022-10-16T04:07:52;5.70;;;2.35;;
23228;SDS011;11783;50.350;6.576;2022-10-16T04:10:17;5.75;;;2.53;;
23228;SDS011;11783;50.350;6.576;2022-10-16T04:12:43;6.70;;;2.40;;
23228;SDS011;11783;50.350;6.576;2022-10-16T04:15:08;3.70;;;2.20;;
23228;SDS011;11783;50.350;6.576;2022-10-16T04:17:34;5.43;;;2.15;;
23228;SDS011;11783;50.350;6.576;2022-10-16T04:20:00;7.60;;;1.90;;
23228;SDS011;11783;50.350;6.576;2022-10-16T04:22:25;6.28;;;1.92;;
23228;SDS011;11783;50.350;6.576;2022-10-16T04:24:50;4.15;;;1.90;;
23228;SDS011;11783;50.350;6.576;2022-10-16T04:27:16;3.58;;;2.10;;
23228;SDS011;11783;50.350;6.576;2022-10-16T04:29:41;4.85;;;2.28;;
23228;SDS011;11783;50.350;6.576;2022-10-16T04:32:07;3.25;;;1.70;;
23228;SDS011;11783;50.350;6.576;2022-10-16T04:34:33;4.70;;;2.00;;
23228;SDS011;11783;50.350;6.576;2022-10-16T04:36:59;4.43;;;2.28;;
23228;SDS011;11783;50.350;6.576;2022-10-16T04:39:24;7.28;;;2.20;;
23228;SDS011;11783;50.350;6.576;2022-10-16T04:41:50;4.25;;;1.80;;
23228;SDS011;11783;50.350;6.576;2022-10-16T04:44:15;4.85;;;1.65;;
23228;SDS011;11783;50.350;6.576;2022-10-16T04:46:40;3.72;;;1.70;;
23228;SDS011;11783;50.350;6.576;2022-10-16T04:49:06;3.40;;;1.83;;
23228;SDS011;11783;50.350;6.576;2022-10-16T04:51:31;2.78;;;1.80;;
23228;SDS011;11783;50.350;6.576;2022-10-16T04:53:56;7.10;;;2.10;;
23228;SDS011;11783;50.350;6.576;2022-10-16T04:56:22;4.63;;;1.50;;
23228;SDS011;11783;50.350;6.576;2022-10-16T04:58:47;2.60;;;1.40;;
23228;SDS011;11783;50.350;6.576;2022-10-16T05:01:13;3.83;;;1.65;;
23228;SDS011;11783;50.350;6.576;2022-10-16T05:03:38;5.78;;;1.42;;
23228;SDS011;11783;50.350;6.576;2022-10-16T05:06:05;3.42;;;1.48;;
23228;SDS011;11783;50.350;6.576;2022-10-16T05:08:31;2.53;;;1.25;;
23228;SDS011;11783;50.350;6.576;2022-10-16T05:10:56;2.55;;;1.30;;
23228;SDS011;11783;50.350;6.576;2022-10-16T05:13:21;4.25;;;1.50;;
23228;SDS011;11783;50.350;6.576;2022-10-16T05:15:48;3.65;;;1.60;;
23228;SDS011;11783;50.350;6.576;2022-10-16T05:18:13;7.90;;;1.70;;
23228;SDS011;11783;50.350;6.576;2022-10-16T05:20:39;3.95;;;1.40;;
23228;SDS011;11783;50.350;6.576;2022-10-16T05:23:04;3.22;;;1.48;;
23228;SDS011;11783;50.350;6.576;2022-10-16T05:25:30;4.78;;;1.50;;
23228;SDS011;11783;50.350;6.576;2022-10-16T05:27:55;4.15;;;1.30;;
23228;SDS011;11783;50.350;6.576;2022-10-16T05:30:20;6.40;;;1.60;;
23228;SDS011;11783;50.350;6.576;2022-10-16T05:32:49;5.38;;;1.50;;
23228;SDS011;11783;50.350;6.576;2022-10-16T05:35:16;6.45;;;1.58;;
23228;SDS011;11783;50.350;6.576;2022-10-16T05:37:42;4.30;;;1.70;;
23228;SDS011;11783;50.350;6.576;2022-10-16T05:40:08;3.63;;;1.80;;
23228;SDS011;11783;50.350;6.576;2022-10-16T05:42:34;2.80;;;1.52;;
23228;SDS011;11783;50.350;6.576;2022-10-16T05:45:00;6.07;;;1.60;;
23228;SDS011;11783;50.350;6.576;2022-10-16T05:47:25;4.57;;;2.30;;
23228;SDS011;11783;50.350;6.576;2022-10-16T05:49:51;3.38;;;1.63;;
23228;SDS011;11783;50.350;6.576;2022-10-16T05:52:16;3.17;;;1.88;;
23228;SDS011;11783;50.350;6.576;2022-10-16T05:54:41;4.50;;;1.88;;
23228;SDS011;11783;50.350;6.576;2022-10-16T05:57:06;5.13;;;1.77;;
23228;SDS011;11783;50.350;6.576;2022-10-16T05:59:32;3.15;;;1.48;;
23228;SDS011;11783;50.350;6.576;2022-10-16T06:01:57;4.05;;;1.73;;
23228;SDS011;11783;50.350;6.576;2022-10-16T06:04:22;5.18;;;1.92;;
23228;SDS011;11783;50.350;6.576;2022-10-16T06:06:48;4.88;;;1.50;;
23228;SDS011;11783;50.350;6.576;2022-10-16T06:09:13;4.97;;;2.45;;
23228;SDS011;11783;50.350;6.576;2022-10-16T06:11:38;4.22;;;1.92;;
23228;SDS011;11783;50.350;6.576;2022-10-16T06:14:04;6.38;;;2.10;;
23228;SDS011;11783;50.350;6.576;2022-10-16T06:16:32;6.05;;;2.00;;
23228;SDS011;11783;50.350;6.576;2022-10-16T06:18:58;4.72;;;1.67;;
23228;SDS011;11783;50.350;6.576;2022-10-16T06:21:27;3.10;;;2.08;;
23228;SDS011;11783;50.350;6.576;2022-10-16T06:23:55;6.47;;;1.90;;
23228;SDS011;11783;50.350;6.576;2022-10-16T06:26:22;4.65;;;1.60;;
23228;SDS011;11783;50.350;6.576;2022-10-16T06:28:49;3.30;;;1.75;;
23228;SDS011;11783;50.350;6.576;2022-10-16T06:31:15;5.63;;;2.03;;
23228;SDS011;11783;50.350;6.576;2022-10-16T06:33:40;4.03;;;1.92;;
23228;SDS011;11783;50.350;6.576;2022-10-16T06:36:07;3.70;;;1.98;;
23228;SDS011;11783;50.350;6.576;2022-10-16T06:38:34;4.50;;;1.50;;
23228;SDS011;11783;50.350;6.576;2022-10-16T06:41:00;2.88;;;1.40;;
23228;SDS011;11783;50.350;6.576;2022-10-16T06:43:25;4.75;;;2.00;;
23228;SDS011;11783;50.350;6.576;2022-10-16T06:45:52;6.45;;;2.20;;
23228;SDS011;11783;50.350;6.576;2022-10-16T06:48:20;4.65;;;1.90;;
23228;SDS011;11783;50.350;6.576;2022-10-16T06:51:00;3.92;;;1.92;;
23228;SDS011;11783;50.350;6.576;2022-10-16T06:53:30;4.75;;;1.63;;
23228;SDS011;11783;50.350;6.576;2022-10-16T06:55:57;3.63;;;1.80;;
23228;SDS011;11783;50.350;6.576;2022-10-16T06:58:22;3.00;;;1.40;;
23228;SDS011;11783;50.350;6.576;2022-10-16T07:00:48;3.40;;;1.73;;
23228;SDS011;11783;50.350;6.576;2022-10-16T07:03:14;4.20;;;1.90;;
23228;SDS011;11783;50.350;6.576;2022-10-16T07:05:40;5.05;;;1.70;;
23228;SDS011;11783;50.350;6.576;2022-10-16T07:08:06;3.35;;;1.80;;
23228;SDS011;11783;50.350;6.576;2022-10-16T07:10:32;2.33;;;1.10;;
23228;SDS011;11783;50.350;6.576;2022-10-16T07:12:58;4.68;;;1.80;;
23228;SDS011;11783;50.350;6.576;2022-10-16T07:15:24;3.75;;;1.48;;
23228;SDS011;11783;50.350;6.576;2022-10-16T07:17:50;2.90;;;1.20;;
23228;SDS011;11783;50.350;6.576;2022-10-16T07:20:15;3.47;;;1.15;;
23228;SDS011;11783;50.350;6.576;2022-10-16T07:22:40;4.22;;;1.85;;
23228;SDS011;11783;50.350;6.576;2022-10-16T07:25:06;5.68;;;1.70;;
23228;SDS011;11783;50.350;6.576;2022-10-16T07:27:31;2.35;;;1.20;;
23228;SDS011;11783;50.350;6.576;2022-10-16T07:29:57;9.27;;;1.50;;
23228;SDS011;11783;50.350;6.576;2022-10-16T07:32:22;4.22;;;1.23;;
23228;SDS011;11783;50.350;6.576;2022-10-16T07:34:48;2.35;;;1.20;;
23228;SDS011;11783;50.350;6.576;2022-10-16T07:37:13;4.30;;;1.38;;
23228;SDS011;11783;50.350;6.576;2022-10-16T07:39:39;2.45;;;0.95;;
23228;SDS011;11783;50.350;6.576;2022-10-16T07:42:04;4.78;;;1.55;;
23228;SDS011;11783;50.350;6.576;2022-10-16T07:44:29;4.90;;;1.25;;
23228;SDS011;11783;50.350;6.576;2022-10-16T07:46:54;2.35;;;1.05;;
23228;SDS011;11783;50.350;6.576;2022-10-16T07:49:20;2.80;;;1.20;;
23228;SDS011;11783;50.350;6.576;2022-10-16T07:51:45;2.22;;;1.27;;
23228;SDS011;11783;50.350;6.576;2022-10-16T07:54:11;5.20;;;1.38;;
23228;SDS011;11783;50.350;6.576;2022-10-16T07:56:36;2.03;;;0.93;;
23228;SDS011;11783;50.350;6.576;2022-10-16T07:59:01;2.80;;;1.05;;
23228;SDS011;11783;50.350;6.576;2022-10-16T08:01:26;2.30;;;1.20;;
23228;SDS011;11783;50.350;6.576;2022-10-16T08:03:52;3.08;;;1.10;;
23228;SDS011;11783;50.350;6.576;2022-10-16T08:06:19;2.60;;;0.90;;
23228;SDS011;11783;50.350;6.576;2022-10-16T08:08:45;1.92;;;0.88;;
23228;SDS011;11783;50.350;6.576;2022-10-16T08:11:11;4.75;;;1.10;;
23228;SDS011;11783;50.350;6.576;2022-10-16T08:13:36;3.40;;;1.00;;
23228;SDS011;11783;50.350;6.576;2022-10-16T08:16:01;3.17;;;1.10;;
23228;SDS011;11783;50.350;6.576;2022-10-16T08:18:32;2.08;;;0.98;;
23228;SDS011;11783;50.350;6.576;2022-10-16T08:20:58;5.05;;;1.20;;
23228;SDS011;11783;50.350;6.576;2022-10-16T08:23:25;2.30;;;1.17;;
23228;SDS011;11783;50.350;6.576;2022-10-16T08:25:52;4.22;;;1.13;;
23228;SDS011;11783;50.350;6.576;2022-10-16T08:28:18;3.03;;;0.95;;
23228;SDS011;11783;50.350;6.576;2022-10-16T08:30:44;3.03;;;0.80;;
23228;SDS011;11783;50.350;6.576;2022-10-16T08:33:09;2.67;;;1.02;;
23228;SDS011;11783;50.350;6.576;2022-10-16T08:35:34;2.92;;;1.10;;
23228;SDS011;11783;50.350;6.576;2022-10-16T08:38:00;3.67;;;1.40;;
23228;SDS011;11783;50.350;6.576;2022-10-16T08:40:28;2.25;;;1.10;;
23228;SDS011;11783;50.350;6.576;2022-10-16T08:48:48;1.90;;;0.85;;
23228;SDS011;11783;50.350;6.576;2022-10-16T08:51:19;2.10;;;1.00;;
23228;SDS011;11783;50.350;6.576;2022-10-16T08:53:59;2.63;;;0.77;;
23228;SDS011;11783;50.350;6.576;2022-10-16T08:56:28;5.03;;;0.90;;
23228;SDS011;11783;50.350;6.576;2022-10-16T08:58:54;2.42;;;0.77;;
23228;SDS011;11783;50.350;6.576;2022-10-16T09:01:20;1.73;;;0.88;;
23228;SDS011;11783;50.350;6.576;2022-10-16T09:11:57;2.67;;;0.60;;
23228;SDS011;11783;50.350;6.576;2022-10-16T09:14:45;2.30;;;0.70;;
23228;SDS011;11783;50.350;6.576;2022-10-16T09:22:51;2.10;;;0.70;;
23228;SDS011;11783;50.350;6.576;2022-10-16T09:25:25;2.85;;;0.68;;
23228;SDS011;11783;50.350;6.576;2022-10-16T09:27:52;3.45;;;0.82;;
23228;SDS011;11783;50.350;6.576;2022-10-16T09:30:19;1.33;;;0.63;;
23228;SDS011;11783;50.350;6.576;2022-10-16T09:32:47;3.10;;;0.88;;
23228;SDS011;11783;50.350;6.576;2022-10-16T09:35:31;1.63;;;0.70;;
23228;SDS011;11783;50.350;6.576;2022-10-16T09:38:01;1.10;;;0.57;;
23228;SDS011;11783;50.350;6.576;2022-10-16T09:45:43;1.48;;;0.50;;
23228;SDS011;11783;50.350;6.576;2022-10-16T09:48:19;2.25;;;0.60;;
23228;SDS011;11783;50.350;6.576;2022-10-16T09:50:54;1.83;;;0.70;;
23228;SDS011;11783;50.350;6.576;2022-10-16T09:53:21;1.85;;;0.60;;
23228;SDS011;11783;50.350;6.576;2022-10-16T09:55:51;3.22;;;0.60;;
23228;SDS011;11783;50.350;6.576;2022-10-16T09:58:20;0.80;;;0.45;;
23228;SDS011;11783;50.350;6.576;2022-10-16T10:00:50;0.93;;;0.43;;
23228;SDS011;11783;50.350;6.576;2022-10-16T10:09:34;2.45;;;0.40;;
23228;SDS011;11783;50.350;6.576;2022-10-16T10:11:49;1.95;;;0.47;;
23228;SDS011;11783;50.350;6.576;2022-10-16T10:17:01;1.98;;;0.40;;
23228;SDS011;11783;50.350;6.576;2022-10-16T10:19:41;1.60;;;0.52;;
23228;SDS011;11783;50.350;6.576;2022-10-16T10:22:17;1.88;;;0.30;;
23228;SDS011;11783;50.350;6.576;2022-10-16T10:33:22;1.23;;;0.50;;
23228;SDS011;11783;50.350;6.576;2022-10-16T10:38:49;2.55;;;0.50;;
23228;SDS011;11783;50.350;6.576;2022-10-16T10:46:38;3.30;;;0.50;;
23228;SDS011;11783;50.350;6.576;2022-10-16T10:54:55;1.45;;;0.50;;
23228;SDS011;11783;50.350;6.576;2022-10-16T11:00:33;2.65;;;0.60;;
23228;SDS011;11783;50.350;6.576;2022-10-16T11:06:16;1.15;;;0.65;;
23228;SDS011;11783;50.350;6.576;2022-10-16T11:08:53;6.72;;;0.70;;
23228;SDS011;11783;50.350;6.576;2022-10-16T11:16:43;1.02;;;0.43;;
23228;SDS011;11783;50.350;6.576;2022-10-16T11:19:25;1.73;;;0.50;;
23228;SDS011;11783;50.350;6.576;2022-10-16T11:21:55;1.52;;;0.40;;
23228;SDS011;11783;50.350;6.576;2022-10-16T11:24:49;0.55;;;0.38;;
23228;SDS011;11783;50.350;6.576;2022-10-16T11:27:20;1.92;;;0.50;;
23228;SDS011;11783;50.350;6.576;2022-10-16T11:29:53;2.40;;;0.63;;
23228;SDS011;11783;50.350;6.576;2022-10-16T11:32:34;3.25;;;0.60;;
23228;SDS011;11783;50.350;6.576;2022-10-16T11:35:08;1.30;;;0.40;;
23228;SDS011;11783;50.350;6.576;2022-10-16T11:37:41;4.20;;;0.60;;
23228;SDS011;11783;50.350;6.576;2022-10-16T11:40:16;1.42;;;0.40;;
23228;SDS011;11783;50.350;6.576;2022-10-16T11:42:54;2.40;;;0.40;;
23228;SDS011;11783;50.350;6.576;2022-10-16T11:45:34;2.97;;;0.38;;
23228;SDS011;11783;50.350;6.576;2022-10-16T11:48:14;1.60;;;0.47;;
23228;SDS011;11783;50.350;6.576;2022-10-16T11:50:51;1.17;;;0.40;;
23228;SDS011;11783;50.350;6.576;2022-10-16T11:53:24;0.93;;;0.30;;
23228;SDS011;11783;50.350;6.576;2022-10-16T11:56:04;3.65;;;0.73;;
23228;SDS011;11783;50.350;6.576;2022-10-16T11:58:35;1.88;;;0.50;;
23228;SDS011;11783;50.350;6.576;2022-10-16T12:08:53;2.67;;;0.40;;
23228;SDS011;11783;50.350;6.576;2022-10-16T12:11:22;1.83;;;0.40;;
23228;SDS011;11783;50.350;6.576;2022-10-16T12:13:48;0.95;;;0.50;;
23228;SDS011;11783;50.350;6.576;2022-10-16T12:18:42;1.37;;;0.50;;
23228;SDS011;11783;50.350;6.576;2022-10-16T12:21:10;1.23;;;0.35;;
23228;SDS011;11783;50.350;6.576;2022-10-16T12:23:48;2.33;;;0.55;;
23228;SDS011;11783;50.350;6.576;2022-10-16T12:26:23;1.58;;;0.50;;
23228;SDS011;11783;50.350;6.576;2022-10-16T12:29:08;2.75;;;0.50;;
23228;SDS011;11783;50.350;6.576;2022-10-16T12:31:39;4.53;;;0.60;;
23228;SDS011;11783;50.350;6.576;2022-10-16T12:34:21;0.73;;;0.47;;
23228;SDS011;11783;50.350;6.576;2022-10-16T12:36:51;1.05;;;0.50;;
23228;SDS011;11783;50.350;6.576;2022-10-16T12:39:20;1.13;;;0.50;;
23228;SDS011;11783;50.350;6.576;2022-10-16T12:41:47;2.72;;;0.50;;
23228;SDS011;11783;50.350;6.576;2022-10-16T12:44:25;5.10;;;0.80;;
23228;SDS011;11783;50.350;6.576;2022-10-16T12:46:53;3.17;;;0.70;;
23228;SDS011;11783;50.350;6.576;2022-10-16T12:49:21;1.88;;;0.50;;
23228;SDS011;11783;50.350;6.576;2022-10-16T12:51:52;4.50;;;0.60;;
23228;SDS011;11783;50.350;6.576;2022-10-16T12:54:31;1.83;;;0.65;;
23228;SDS011;11783;50.350;6.576;2022-10-16T12:57:00;2.33;;;0.70;;
23228;SDS011;11783;50.350;6.576;2022-10-16T12:59:53;2.72;;;0.60;;
23228;SDS011;11783;50.350;6.576;2022-10-16T13:11:00;1.38;;;0.47;;
23228;SDS011;11783;50.350;6.576;2022-10-16T13:22:05;0.90;;;0.50;;
23228;SDS011;11783;50.350;6.576;2022-10-16T13:27:25;1.55;;;0.50;;
23228;SDS011;11783;50.350;6.576;2022-10-16T13:30:15;1.30;;;0.40;;
23228;SDS011;11783;50.350;6.576;2022-10-16T13:32:45;2.63;;;0.60;;
23228;SDS011;11783;50.350;6.576;2022-10-16T13:35:26;2.00;;;0.60;;
23228;SDS011;11783;50.350;6.576;2022-10-16T13:38:54;0.75;;;0.40;;
23228;SDS011;11783;50.350;6.576;2022-10-16T13:40:59;1.45;;;0.70;;
23228;SDS011;11783;50.350;6.576;2022-10-16T13:43:34;2.83;;;0.77;;
23228;SDS011;11783;50.350;6.576;2022-10-16T13:46:03;2.03;;;0.60;;
23228;SDS011;11783;50.350;6.576;2022-10-16T13:48:31;1.35;;;0.50;;
23228;SDS011;11783;50.350;6.576;2022-10-16T13:53:26;1.45;;;0.50;;
23228;SDS011;11783;50.350;6.576;2022-10-16T13:55:52;2.35;;;0.60;;
23228;SDS011;11783;50.350;6.576;2022-10-16T13:58:17;1.02;;;0.60;;
23228;SDS011;11783;50.350;6.576;2022-10-16T14:00:56;1.13;;;0.50;;
23228;SDS011;11783;50.350;6.576;2022-10-16T14:03:27;0.77;;;0.47;;
23228;SDS011;11783;50.350;6.576;2022-10-16T14:06:00;1.27;;;0.60;;
23228;SDS011;11783;50.350;6.576;2022-10-16T14:08:28;4.65;;;0.60;;
23228;SDS011;11783;50.350;6.576;2022-10-16T14:10:55;2.72;;;0.60;;
23228;SDS011;11783;50.350;6.576;2022-10-16T14:13:26;0.85;;;0.50;;
23228;SDS011;11783;50.350;6.576;2022-10-16T14:15:59;0.70;;;0.50;;
23228;SDS011;11783;50.350;6.576;2022-10-16T14:18:32;0.95;;;0.47;;
23228;SDS011;11783;50.350;6.576;2022-10-16T14:21:02;3.38;;;0.68;;
23228;SDS011;11783;50.350;6.576;2022-10-16T14:23:30;2.95;;;0.73;;
23228;SDS011;11783;50.350;6.576;2022-10-16T14:26:40;1.52;;;0.50;;
23228;SDS011;11783;50.350;6.576;2022-10-16T14:29:03;1.67;;;0.60;;
23228;SDS011;11783;50.350;6.576;2022-10-16T14:31:35;3.80;;;0.70;;
23228;SDS011;11783;50.350;6.576;2022-10-16T14:34:02;2.85;;;0.57;;
23228;SDS011;11783;50.350;6.576;2022-10-16T14:36:28;1.88;;;0.63;;
23228;SDS011;11783;50.350;6.576;2022-10-16T14:38:59;2.95;;;0.70;;
23228;SDS011;11783;50.350;6.576;2022-10-16T14:41:28;3.10;;;1.02;;
23228;SDS011;11783;50.350;6.576;2022-10-16T14:43:55;4.43;;;0.90;;
23228;SDS011;11783;50.350;6.576;2022-10-16T14:46:23;2.35;;;0.90;;
23228;SDS011;11783;50.350;6.576;2022-10-16T14:49:00;2.30;;;0.80;;
23228;SDS011;11783;50.350;6.576;2022-10-16T14:51:30;3.72;;;0.88;;
23228;SDS011;11783;50.350;6.576;2022-10-16T14:53:55;1.92;;;0.90;;
23228;SDS011;11783;50.350;6.576;2022-10-16T14:56:22;2.28;;;0.82;;
23228;SDS011;11783;50.350;6.576;2022-10-16T14:58:50;3.92;;;1.10;;
23228;SDS011;11783;50.350;6.576;2022-10-16T15:01:16;2.22;;;0.90;;
23228;SDS011;11783;50.350;6.576;2022-10-16T15:03:41;2.22;;;1.00;;
23228;SDS011;11783;50.350;6.576;2022-10-16T15:06:13;4.30;;;1.30;;
23228;SDS011;11783;50.350;6.576;2022-10-16T15:08:40;5.93;;;1.50;;
23228;SDS011;11783;50.350;6.576;2022-10-16T15:11:13;2.75;;;1.35;;
23228;SDS011;11783;50.350;6.576;2022-10-16T15:13:41;3.13;;;1.10;;
23228;SDS011;11783;50.350;6.576;2022-10-16T15:16:08;3.17;;;1.55;;
23228;SDS011;11783;50.350;6.576;2022-10-16T15:18:36;2.97;;;1.30;;
23228;SDS011;11783;50.350;6.576;2022-10-16T15:21:01;3.63;;;1.50;;
23228;SDS011;11783;50.350;6.576;2022-10-16T15:23:27;4.43;;;1.10;;
23228;SDS011;11783;50.350;6.576;2022-10-16T15:25:53;2.85;;;1.30;;
23228;SDS011;11783;50.350;6.576;2022-10-16T15:28:20;4.75;;;1.27;;
23228;SDS011;11783;50.350;6.576;2022-10-16T15:30:48;3.38;;;1.30;;
23228;SDS011;11783;50.350;6.576;2022-10-16T15:33:16;2.80;;;1.30;;
23228;SDS011;11783;50.350;6.576;2022-10-16T15:35:46;3.28;;;1.30;;
23228;SDS011;11783;50.350;6.576;2022-10-16T15:38:12;3.20;;;1.13;;
23228;SDS011;11783;50.350;6.576;2022-10-16T15:40:38;3.47;;;1.60;;
23228;SDS011;11783;50.350;6.576;2022-10-16T15:43:04;3.17;;;1.77;;
23228;SDS011;11783;50.350;6.576;2022-10-16T15:45:30;3.25;;;1.50;;
23228;SDS011;11783;50.350;6.576;2022-10-16T15:47:55;3.35;;;1.27;;
23228;SDS011;11783;50.350;6.576;2022-10-16T15:50:20;4.32;;;1.52;;
23228;SDS011;11783;50.350;6.576;2022-10-16T15:52:46;3.30;;;1.58;;
23228;SDS011;11783;50.350;6.576;2022-10-16T15:55:12;4.68;;;1.90;;
23228;SDS011;11783;50.350;6.576;2022-10-16T15:57:38;5.28;;;2.10;;
23228;SDS011;11783;50.350;6.576;2022-10-16T16:00:07;14.00;;;2.75;;
23228;SDS011;11783;50.350;6.576;2022-10-16T16:02:34;4.00;;;1.67;;
23228;SDS011;11783;50.350;6.576;2022-10-16T16:04:59;6.60;;;1.90;;
23228;SDS011;11783;50.350;6.576;2022-10-16T16:07:24;5.30;;;1.90;;
23228;SDS011;11783;50.350;6.576;2022-10-16T16:09:50;5.20;;;1.65;;
23228;SDS011;11783;50.350;6.576;2022-10-16T16:12:15;6.40;;;1.90;;
23228;SDS011;11783;50.350;6.576;2022-10-16T16:14:40;9.75;;;2.10;;
23228;SDS011;11783;50.350;6.576;2022-10-16T16:17:06;4.10;;;2.25;;
23228;SDS011;11783;50.350;6.576;2022-10-16T16:19:32;5.90;;;2.10;;
23228;SDS011;11783;50.350;6.576;2022-10-16T16:22:00;6.40;;;2.63;;
23228;SDS011;11783;50.350;6.576;2022-10-16T16:24:25;5.75;;;2.50;;
23228;SDS011;11783;50.350;6.576;2022-10-16T16:26:51;10.68;;;2.60;;
23228;SDS011;11783;50.350;6.576;2022-10-16T16:29:21;7.20;;;2.83;;
23228;SDS011;11783;50.350;6.576;2022-10-16T16:31:46;4.25;;;2.45;;
23228;SDS011;11783;50.350;6.576;2022-10-16T16:34:12;8.32;;;2.70;;
23228;SDS011;11783;50.350;6.576;2022-10-16T16:36:38;11.93;;;2.50;;
23228;SDS011;11783;50.350;6.576;2022-10-16T16:39:05;9.55;;;2.83;;
23228;SDS011;11783;50.350;6.576;2022-10-16T16:41:31;10.77;;;3.58;;
23228;SDS011;11783;50.350;6.576;2022-10-16T16:44:01;7.75;;;2.58;;
23228;SDS011;11783;50.350;6.576;2022-10-16T16:46:28;6.57;;;3.10;;
23228;SDS011;11783;50.350;6.576;2022-10-16T16:48:54;9.20;;;3.00;;
23228;SDS011;11783;50.350;6.576;2022-10-16T16:51:22;7.00;;;3.58;;